Time;durP1;ratioP1;P1;durP2;ratioP2;P2;SDS_P1;SDS_P2;PMS_P1;PMS_P2;Temp;Humidity;BMP_temperature;BMP_pressure;BME280_temperature;BME280_humidity;BME280_pressure;Samples;Min_cycle;Max_cycle;Signal;HPM_P1;HPM_P2
2024/02/03 00:02:17;;;;;;;20.10;10.50;;;;;;;-0.91;83.29;96084.43;106633;1275;24232;-77
2024/02/03 00:04:45;;;;;;;20.20;10.20;;;;;;;-0.84;83.44;96081.21;106685;1275;22524;-77
2024/02/03 00:07:14;;;;;;;20.80;9.70;;;;;;;-0.75;83.37;96074.10;106842;1275;24509;-77
2024/02/03 00:09:42;;;;;;;19.60;10.10;;;;;;;-0.72;82.53;96078.16;106808;1275;23045;-77
2024/02/03 00:12:11;;;;;;;18.90;10.20;;;;;;;-0.70;82.44;96075.82;106682;1275;22534;-77
2024/02/03 00:14:40;;;;;;;17.80;9.50;;;;;;;-0.62;82.68;96073.48;106740;1275;22520;-77
2024/02/03 00:17:09;;;;;;;11.60;5.40;;;;;;;-0.57;82.48;96071.38;106682;1275;25569;-77
2024/02/03 00:19:38;;;;;;;8.60;4.00;;;;;;;-0.42;82.31;96065.47;106652;1275;22657;-76
2024/02/03 00:22:06;;;;;;;11.90;5.10;;;;;;;-0.21;81.46;96056.77;106747;1275;23021;-77
2024/02/03 00:24:34;;;;;;;5.30;2.60;;;;;;;-0.07;80.52;96059.94;106719;1265;22678;-76
2024/02/03 00:27:04;;;;;;;10.10;2.70;;;;;;;0.18;78.61;96051.70;106580;1275;24964;-77
2024/02/03 00:29:34;;;;;;;6.90;2.60;;;;;;;0.32;78.12;96055.36;106578;1275;24301;-76
2024/02/03 00:32:02;;;;;;;13.30;3.60;;;;;;;0.41;78.04;96058.57;106767;1275;25436;-76
2024/02/03 00:34:31;;;;;;;9.30;3.10;;;;;;;0.47;78.48;96052.13;106820;1275;24061;-76
2024/02/03 00:37:00;;;;;;;11.90;4.20;;;;;;;0.49;78.45;96052.03;106894;1275;25442;-76
2024/02/03 00:39:28;;;;;;;12.50;3.10;;;;;;;0.50;77.80;96045.98;106948;1275;22531;-77
2024/02/03 00:41:56;;;;;;;8.10;2.90;;;;;;;0.49;78.10;96043.55;106806;1275;23925;-76
2024/02/03 00:44:25;;;;;;;6.30;2.30;;;;;;;0.49;78.06;96040.27;106607;1275;22529;-77
2024/02/03 00:46:53;;;;;;;7.40;2.60;;;;;;;0.48;78.19;96040.75;106649;1275;25532;-76
2024/02/03 00:49:21;;;;;;;7.50;2.80;;;;;;;0.45;78.30;96038.95;106671;1275;25417;-77
2024/02/03 00:51:50;;;;;;;9.70;3.00;;;;;;;0.54;77.30;96031.04;107060;1275;22630;-76
2024/02/03 00:54:18;;;;;;;4.50;2.40;;;;;;;0.62;77.15;96024.51;106690;1272;22567;-77
2024/02/03 00:56:46;;;;;;;5.00;2.60;;;;;;;0.70;77.24;96026.10;106739;1275;23879;-77
2024/02/03 00:59:15;;;;;;;7.70;2.40;;;;;;;0.72;77.01;96030.65;106698;1275;25263;-77
2024/02/03 01:01:44;;;;;;;5.40;2.90;;;;;;;0.72;76.27;96029.27;106707;1275;25250;-76
2024/02/03 01:04:12;;;;;;;9.40;3.30;;;;;;;0.73;76.28;96032.23;106645;1275;24360;-77
2024/02/03 01:06:41;;;;;;;8.40;3.20;;;;;;;0.72;76.74;96024.95;106655;1275;22533;-76
2024/02/03 01:09:09;;;;;;;6.60;3.20;;;;;;;0.69;76.92;96015.52;106740;1275;22622;-77
2024/02/03 01:11:37;;;;;;;5.60;2.40;;;;;;;0.68;76.94;96010.47;106738;1275;22558;-77
2024/02/03 01:14:06;;;;;;;10.50;2.90;;;;;;;0.66;76.72;96013.37;106755;1275;25364;-76
2024/02/03 01:16:34;;;;;;;6.70;3.30;;;;;;;0.66;76.98;96011.29;106686;1275;22530;-76
2024/02/03 01:19:02;;;;;;;13.30;5.10;;;;;;;0.67;76.68;96003.86;106668;1275;24234;-76
2024/02/03 01:21:31;;;;;;;8.10;2.80;;;;;;;0.72;76.65;95994.66;106869;1275;22524;-76
2024/02/03 01:23:59;;;;;;;6.90;3.40;;;;;;;0.77;76.71;95990.44;106844;1275;25356;-76
2024/02/03 01:26:27;;;;;;;7.20;2.40;;;;;;;0.79;77.03;95990.16;106805;1275;22571;-77
2024/02/03 01:28:55;;;;;;;6.00;2.60;;;;;;;0.79;77.09;95983.40;106794;1275;24045;-76
2024/02/03 01:31:23;;;;;;;6.90;2.80;;;;;;;0.79;77.19;95981.33;106586;1275;24266;-76
2024/02/03 01:33:52;;;;;;;4.80;2.40;;;;;;;0.81;77.38;95972.18;106752;1275;24225;-76
2024/02/03 01:36:20;;;;;;;6.00;2.90;;;;;;;0.88;77.48;95967.69;106679;1275;22757;-77
2024/02/03 01:38:51;;;;;;;4.00;2.20;;;;;;;0.96;76.43;95964.08;106641;1275;22518;-76
2024/02/03 01:41:19;;;;;;;3.40;1.90;;;;;;;1.10;75.82;95963.19;106698;1275;25511;-76
2024/02/03 01:43:48;;;;;;;5.70;2.60;;;;;;;1.26;74.09;95955.77;106505;1275;22674;-76
2024/02/03 01:46:17;;;;;;;9.00;4.60;;;;;;;1.35;74.92;95957.19;106738;1275;25349;-76
2024/02/03 01:48:46;;;;;;;8.40;2.90;;;;;;;1.38;74.43;95952.41;106688;1275;25354;-76
2024/02/03 01:51:19;;;;;;;7.50;3.00;;;;;;;1.41;75.04;95950.05;106741;1275;22634;-76
2024/02/03 01:53:48;;;;;;;7.10;3.10;;;;;;;1.42;74.96;95947.48;106665;1275;22761;-76
2024/02/03 01:56:18;;;;;;;5.10;2.80;;;;;;;1.41;74.25;95934.95;106767;1275;22623;-76
2024/02/03 01:58:47;;;;;;;5.50;2.30;;;;;;;1.40;74.91;95931.48;106586;1275;22553;-76
2024/02/03 02:01:16;;;;;;;7.00;3.60;;;;;;;1.33;75.08;95934.60;106616;1275;22527;-76
2024/02/03 02:03:45;;;;;;;7.00;2.80;;;;;;;1.35;74.76;95926.34;106818;1275;25362;-76
2024/02/03 02:06:13;;;;;;;10.20;3.50;;;;;;;1.39;74.53;95918.64;106771;1275;22948;-77
2024/02/03 02:08:42;;;;;;;12.00;5.20;;;;;;;1.41;74.61;95919.70;106724;1275;22541;-76
2024/02/03 02:11:13;;;;;;;10.10;4.40;;;;;;;1.39;74.90;95914.46;106682;1275;22539;-76
2024/02/03 02:13:42;;;;;;;8.20;3.30;;;;;;;1.34;75.13;95908.82;106668;1275;25399;-76
2024/02/03 02:16:10;;;;;;;8.00;3.10;;;;;;;1.34;75.10;95916.09;106744;1275;22653;-76
2024/02/03 02:18:41;;;;;;;10.70;4.10;;;;;;;1.37;74.88;95926.19;106635;1275;24376;-76
2024/02/03 02:21:09;;;;;;;6.60;3.30;;;;;;;1.46;74.93;95931.27;106645;1271;24205;-76
2024/02/03 02:23:37;;;;;;;8.80;3.10;;;;;;;1.52;74.71;95931.39;106729;1275;25247;-76
2024/02/03 02:26:05;;;;;;;8.20;3.40;;;;;;;1.57;74.39;95924.20;106649;1275;22757;-76
2024/02/03 02:28:34;;;;;;;8.80;3.60;;;;;;;1.59;74.57;95930.49;106677;1275;22535;-76
2024/02/03 02:31:02;;;;;;;7.90;3.60;;;;;;;1.61;74.57;95932.27;106822;1275;23009;-76
2024/02/03 02:33:31;;;;;;;8.40;3.70;;;;;;;1.62;74.62;95936.80;106677;1275;22535;-76
2024/02/03 02:35:59;;;;;;;8.20;3.50;;;;;;;1.62;74.65;95942.18;106698;1275;23882;-76
2024/02/03 02:38:28;;;;;;;10.40;3.30;;;;;;;1.61;74.84;95935.73;106731;1275;24422;-76
2024/02/03 02:40:57;;;;;;;5.90;3.20;;;;;;;1.62;75.09;95929.86;106645;1275;24386;-76
2024/02/03 02:43:25;;;;;;;5.60;2.90;;;;;;;1.62;75.14;95926.06;106626;1275;22527;-76
2024/02/03 02:45:54;;;;;;;8.40;3.40;;;;;;;1.65;75.50;95919.88;106680;1275;22534;-76
2024/02/03 02:48:22;;;;;;;8.60;3.90;;;;;;;1.64;75.54;95915.17;106963;1275;24389;-76
2024/02/03 02:50:51;;;;;;;6.20;3.90;;;;;;;1.66;75.63;95910.36;106738;1275;25399;-76
2024/02/03 02:53:19;;;;;;;6.40;2.70;;;;;;;1.76;75.54;95903.96;106662;1269;24216;-77
2024/02/03 02:55:47;;;;;;;16.10;7.60;;;;;;;1.83;75.54;95891.79;106670;1275;24221;-76
2024/02/03 02:58:15;;;;;;;5.90;2.90;;;;;;;1.89;75.77;95879.77;106861;1275;22566;-76
2024/02/03 03:00:44;;;;;;;10.30;4.20;;;;;;;1.93;75.64;95877.75;106701;1275;24283;-76
2024/02/03 03:03:12;;;;;;;6.70;3.30;;;;;;;1.95;75.55;95873.98;106858;1275;23914;-77
2024/02/03 03:05:40;;;;;;;5.90;1.90;;;;;;;1.98;75.59;95870.23;106887;1275;22514;-76
2024/02/03 03:08:08;;;;;;;6.20;2.10;;;;;;;1.98;75.68;95865.88;106692;1275;24223;-76
2024/02/03 03:10:37;;;;;;;5.40;2.60;;;;;;;1.96;75.86;95865.33;106685;1275;22558;-76
2024/02/03 03:13:05;;;;;;;4.70;2.40;;;;;;;1.93;76.14;95865.45;106668;1275;25570;-76
2024/02/03 03:15:33;;;;;;;6.00;2.40;;;;;;;1.92;76.35;95867.85;106667;1275;25389;-76
2024/02/03 03:18:01;;;;;;;4.10;2.80;;;;;;;1.92;76.31;95859.88;106741;1275;24219;-76
2024/02/03 03:20:30;;;;;;;6.40;2.80;;;;;;;1.91;76.14;95859.33;106752;1274;23891;-76
2024/02/03 03:22:59;;;;;;;7.70;3.30;;;;;;;1.87;76.38;95864.48;106763;1266;25424;-76
2024/02/03 03:25:27;;;;;;;4.20;2.20;;;;;;;1.85;76.58;95868.93;106691;1274;22520;-76
2024/02/03 03:27:56;;;;;;;3.70;1.50;;;;;;;1.83;76.86;95876.52;106753;1275;24265;-76
2024/02/03 03:30:24;;;;;;;2.00;1.30;;;;;;;1.85;77.16;95877.61;106687;1275;25419;-76
2024/02/03 03:32:52;;;;;;;3.60;1.50;;;;;;;1.86;77.12;95873.30;106623;1275;22561;-76
2024/02/03 03:35:20;;;;;;;3.60;1.80;;;;;;;1.86;77.11;95870.70;106844;1275;25377;-76
2024/02/03 03:37:49;;;;;;;3.00;1.80;;;;;;;1.85;76.88;95871.19;106664;1275;26615;-76
2024/02/03 03:40:17;;;;;;;2.80;1.50;;;;;;;1.82;76.88;95862.64;106872;1275;22547;-76
2024/02/03 03:42:47;;;;;;;2.00;1.40;;;;;;;1.80;77.01;95864.67;106659;1275;22538;-76
2024/02/03 03:45:19;;;;;;;1.50;1.10;;;;;;;1.79;77.09;95867.42;106675;1275;25596;-76
2024/02/03 03:47:47;;;;;;;4.00;2.20;;;;;;;1.78;77.24;95866.89;106678;1274;22539;-76
2024/02/03 03:50:15;;;;;;;9.50;4.10;;;;;;;1.80;77.27;95861.56;106655;1275;25428;-76
2024/02/03 03:52:44;;;;;;;11.40;4.20;;;;;;;1.78;77.57;95859.96;106696;1275;24257;-76
2024/02/03 03:55:12;;;;;;;4.50;2.30;;;;;;;1.76;77.78;95856.09;106606;1275;22629;-76
2024/02/03 03:57:40;;;;;;;6.20;2.40;;;;;;;1.79;78.27;95854.07;106623;1275;24365;-76
2024/02/03 04:00:10;;;;;;;6.60;3.90;;;;;;;1.79;78.54;95858.61;106634;1271;24404;-76
2024/02/03 04:02:41;;;;;;;1.20;0.70;;;;;;;1.80;78.42;95859.83;106706;1275;22522;-76
2024/02/03 04:05:10;;;;;;;1.00;0.60;;;;;;;1.79;78.37;95857.20;106770;1275;24417;-76
2024/02/03 04:07:38;;;;;;;1.70;0.70;;;;;;;1.79;78.84;95856.16;106688;1275;25236;-76
2024/02/03 04:10:06;;;;;;;1.50;0.50;;;;;;;1.81;79.00;95843.89;106860;1275;22639;-76
2024/02/03 04:12:34;;;;;;;1.50;0.40;;;;;;;1.92;79.22;95844.96;106663;1275;23896;-76
2024/02/03 04:15:03;;;;;;;1.10;0.80;;;;;;;2.04;79.18;95839.28;106658;1275;24379;-76
2024/02/03 04:17:31;;;;;;;1.30;0.70;;;;;;;2.15;78.96;95838.95;106834;1264;22660;-76
2024/02/03 04:19:59;;;;;;;5.80;3.70;;;;;;;2.26;78.76;95837.77;106704;1275;24433;-76
2024/02/03 04:22:28;;;;;;;1.50;1.10;;;;;;;2.32;78.63;95829.18;106748;1275;24338;-76
2024/02/03 04:24:56;;;;;;;2.40;1.10;;;;;;;2.34;78.75;95823.15;106660;1275;22985;-76
2024/02/03 04:27:24;;;;;;;2.20;1.00;;;;;;;2.33;78.97;95828.52;106663;1275;22516;-76
2024/02/03 04:29:53;;;;;;;1.30;1.20;;;;;;;2.32;79.18;95823.80;106845;1275;22532;-76
2024/02/03 04:32:21;;;;;;;1.10;0.70;;;;;;;2.28;79.70;95824.95;106872;1275;22462;-76
2024/02/03 04:34:50;;;;;;;3.10;1.20;;;;;;;2.24;80.03;95817.59;106733;1275;25355;-77
2024/02/03 04:37:18;;;;;;;2.30;0.60;;;;;;;2.20;80.92;95813.00;106685;1275;25408;-76
2024/02/03 04:39:46;;;;;;;4.80;1.40;;;;;;;2.16;81.12;95802.70;106631;1275;23154;-76
2024/02/03 04:42:14;;;;;;;2.80;1.30;;;;;;;2.12;81.76;95801.23;106694;1275;24294;-76
2024/02/03 04:44:43;;;;;;;1.90;1.00;;;;;;;2.08;81.78;95795.45;106585;1275;22513;-76
2024/02/03 04:47:11;;;;;;;2.40;1.40;;;;;;;2.00;82.44;95785.77;106727;1275;24345;-76
2024/02/03 04:49:40;;;;;;;1.40;0.80;;;;;;;1.94;82.08;95789.48;106652;1275;24233;-76
2024/02/03 04:52:08;;;;;;;0.80;0.50;;;;;;;1.88;83.85;95785.74;106738;1275;25274;-76
2024/02/03 04:54:36;;;;;;;0.90;0.60;;;;;;;1.90;83.68;95780.40;106627;1275;22628;-76
2024/02/03 04:57:05;;;;;;;1.00;0.60;;;;;;;1.92;83.26;95773.66;106662;1275;25359;-76
2024/02/03 04:59:33;;;;;;;1.70;0.80;;;;;;;1.91;83.54;95770.86;106628;1275;24420;-76
2024/02/03 05:02:01;;;;;;;1.40;0.70;;;;;;;1.93;83.20;95770.02;106612;1275;22527;-76
2024/02/03 05:04:29;;;;;;;1.20;0.90;;;;;;;1.98;83.30;95773.77;106830;1275;24059;-76
2024/02/03 05:06:57;;;;;;;2.80;1.10;;;;;;;2.04;83.70;95763.81;106639;1275;22635;-76
2024/02/03 05:09:26;;;;;;;1.30;1.10;;;;;;;2.08;83.82;95765.27;106817;1275;22533;-76
2024/02/03 05:11:54;;;;;;;1.90;1.40;;;;;;;2.18;83.57;95768.21;106987;1275;22531;-76
2024/02/03 05:14:22;;;;;;;3.00;1.30;;;;;;;2.31;83.24;95761.84;106900;1275;25300;-76
2024/02/03 05:16:50;;;;;;;2.10;1.50;;;;;;;2.40;82.84;95757.79;106637;1271;22514;-76
2024/02/03 05:19:19;;;;;;;2.00;1.60;;;;;;;2.46;82.41;95749.73;106680;1275;22523;-76
2024/02/03 05:21:47;;;;;;;1.90;1.30;;;;;;;2.54;82.28;95739.60;106939;1275;22643;-76
2024/02/03 05:24:15;;;;;;;2.00;1.50;;;;;;;2.58;81.96;95738.95;106679;1275;25628;-76
2024/02/03 05:26:44;;;;;;;2.80;1.50;;;;;;;2.62;81.97;95749.45;106784;1275;25292;-76
2024/02/03 05:29:12;;;;;;;4.90;3.00;;;;;;;2.67;81.89;95739.77;106680;1275;25449;-76
2024/02/03 05:31:40;;;;;;;3.00;2.10;;;;;;;2.71;81.89;95740.88;106603;1273;22617;-76
2024/02/03 05:34:08;;;;;;;5.10;2.80;;;;;;;2.75;81.79;95741.98;106700;1275;23883;-76
2024/02/03 05:36:37;;;;;;;4.20;2.00;;;;;;;2.77;82.30;95737.15;106651;1275;24472;-77
2024/02/03 05:39:06;;;;;;;3.50;1.80;;;;;;;2.86;82.01;95738.48;106605;1275;22569;-76
2024/02/03 05:41:34;;;;;;;4.70;2.50;;;;;;;2.88;82.15;95733.29;106842;1275;22660;-76
2024/02/03 05:44:02;;;;;;;1.80;0.90;;;;;;;2.88;82.09;95733.46;106783;1275;22719;-77
2024/02/03 05:46:31;;;;;;;2.90;2.40;;;;;;;2.88;82.05;95730.17;106778;1275;22624;-76
2024/02/03 05:48:59;;;;;;;3.60;2.50;;;;;;;2.89;82.42;95735.91;106665;1275;22523;-76
2024/02/03 05:51:27;;;;;;;8.90;4.60;;;;;;;2.89;82.40;95740.60;106657;1275;23976;-77
2024/02/03 05:53:57;;;;;;;4.20;3.10;;;;;;;2.88;82.45;95740.07;106673;1275;24318;-76
2024/02/03 05:56:26;;;;;;;7.50;5.10;;;;;;;2.86;82.43;95745.06;106675;1275;22634;-76
2024/02/03 05:58:54;;;;;;;3.20;2.30;;;;;;;2.85;82.81;95742.46;106599;1275;24303;-77
2024/02/03 06:01:42;;;;;;;4.10;2.50;;;;;;;2.85;82.78;95736.73;106669;1275;25872;-77
2024/02/03 06:04:10;;;;;;;5.10;3.50;;;;;;;2.87;82.57;95741.97;106645;1275;22639;-77
2024/02/03 06:06:39;;;;;;;4.00;2.90;;;;;;;2.89;82.50;95736.79;106657;1275;23622;-76
2024/02/03 06:09:08;;;;;;;6.50;3.10;;;;;;;2.92;82.18;95740.13;106781;1275;22520;-77
2024/02/03 06:11:36;;;;;;;4.60;3.20;;;;;;;2.90;82.29;95742.52;106662;1275;25422;-77
2024/02/03 06:14:04;;;;;;;5.10;3.20;;;;;;;2.87;82.42;95739.36;106637;1275;22599;-77
2024/02/03 06:16:33;;;;;;;3.40;2.50;;;;;;;2.86;82.49;95746.29;106645;1275;22788;-76
2024/02/03 06:19:01;;;;;;;7.20;3.60;;;;;;;2.85;82.33;95742.98;106626;1275;22656;-77
2024/02/03 06:21:29;;;;;;;3.10;2.30;;;;;;;2.79;82.79;95747.24;106663;1275;24149;-77
2024/02/03 06:23:57;;;;;;;8.30;5.10;;;;;;;2.76;82.67;95748.42;106631;1275;22525;-76
2024/02/03 06:26:30;;;;;;;8.80;3.90;;;;;;;2.70;82.99;95748.69;106603;1275;25416;-77
2024/02/03 06:28:58;;;;;;;6.90;4.70;;;;;;;2.69;82.93;95756.30;106929;1275;24102;-76
2024/02/03 06:31:26;;;;;;;9.40;6.00;;;;;;;2.68;82.78;95757.33;106607;1275;24377;-77
2024/02/03 06:33:54;;;;;;;23.30;12.60;;;;;;;2.68;82.90;95766.38;106601;1275;22536;-76
2024/02/03 06:36:23;;;;;;;5.80;3.40;;;;;;;2.67;83.11;95765.66;106669;1275;25520;-77
2024/02/03 06:38:51;;;;;;;9.30;4.00;;;;;;;2.72;83.10;95766.95;106688;1273;24209;-77
2024/02/03 06:41:19;;;;;;;3.80;2.30;;;;;;;2.75;83.01;95768.55;106602;1275;22599;-77
2024/02/03 06:43:47;;;;;;;9.20;4.50;;;;;;;2.80;82.64;95769.50;106666;1275;22803;-76
2024/02/03 06:46:16;;;;;;;6.40;3.50;;;;;;;2.87;82.25;95767.52;106594;1275;24704;-76
2024/02/03 06:48:44;;;;;;;6.80;3.30;;;;;;;2.93;81.77;95773.50;106619;1275;25330;-78
2024/02/03 06:51:13;;;;;;;32.50;13.30;;;;;;;2.99;81.57;95770.47;106676;1275;22506;-77
2024/02/03 06:53:41;;;;;;;6.20;2.90;;;;;;;3.03;81.52;95772.77;106661;1275;22696;-77
2024/02/03 06:56:09;;;;;;;26.10;11.90;;;;;;;3.08;81.10;95775.08;106603;1275;25409;-75
2024/02/03 06:58:37;;;;;;;13.50;6.70;;;;;;;3.12;81.10;95774.10;106656;1275;25509;-75
2024/02/03 07:01:06;;;;;;;7.20;3.70;;;;;;;3.11;81.13;95779.66;106580;1275;22646;-75
2024/02/03 07:03:34;;;;;;;58.30;23.10;;;;;;;3.12;81.29;95786.09;107040;1275;24404;-75
2024/02/03 07:06:03;;;;;;;36.30;13.10;;;;;;;3.15;81.24;95788.21;106623;1275;24286;-76
2024/02/03 07:08:31;;;;;;;13.10;5.60;;;;;;;3.17;81.25;95787.71;106619;1271;23967;-75
2024/02/03 07:11:00;;;;;;;5.90;2.80;;;;;;;3.18;81.26;95789.65;106627;1275;22524;-75
2024/02/03 07:13:28;;;;;;;5.60;2.90;;;;;;;3.19;81.47;95794.70;106612;1275;25304;-75
2024/02/03 07:15:56;;;;;;;11.50;5.60;;;;;;;3.21;81.29;95795.93;106650;1275;25274;-75
2024/02/03 07:18:25;;;;;;;8.40;4.00;;;;;;;3.25;81.36;95794.26;106647;1275;25250;-76
2024/02/03 07:20:53;;;;;;;6.90;2.50;;;;;;;3.31;81.07;95795.02;106663;1275;22525;-75
2024/02/03 07:23:21;;;;;;;4.20;2.70;;;;;;;3.37;80.81;95801.36;106595;1268;22572;-76
2024/02/03 07:25:50;;;;;;;5.10;2.40;;;;;;;3.45;81.04;95799.90;106649;1275;25251;-76
2024/02/03 07:28:18;;;;;;;9.40;4.80;;;;;;;3.51;81.17;95803.27;106625;1275;22521;-76
2024/02/03 07:30:46;;;;;;;10.80;3.70;;;;;;;3.53;80.88;95803.64;106598;1275;25383;-75
2024/02/03 07:33:14;;;;;;;17.50;8.40;;;;;;;3.56;81.03;95800.55;106668;1275;23021;-76
2024/02/03 07:35:43;;;;;;;10.00;4.40;;;;;;;3.60;81.25;95795.04;106606;1275;22642;-76
2024/02/03 07:38:11;;;;;;;7.60;4.30;;;;;;;3.64;81.14;95796.82;106584;1275;22664;-77
2024/02/03 07:40:40;;;;;;;6.60;3.40;;;;;;;3.67;81.20;95792.86;106923;1275;24282;-75
2024/02/03 07:43:08;;;;;;;5.00;3.10;;;;;;;3.74;80.99;95799.36;106784;1275;22530;-76
2024/02/03 07:45:36;;;;;;;9.40;3.90;;;;;;;3.83;80.95;95795.10;106952;1275;22545;-76
2024/02/03 07:48:05;;;;;;;6.90;3.50;;;;;;;3.91;80.98;95796.59;106600;1275;22539;-76
2024/02/03 07:50:33;;;;;;;5.30;2.90;;;;;;;4.02;81.27;95793.73;106681;1275;22520;-75
2024/02/03 07:53:01;;;;;;;11.70;5.00;;;;;;;4.20;80.94;95801.23;106685;1275;22757;-76
2024/02/03 07:55:30;;;;;;;4.30;2.70;;;;;;;4.32;79.61;95802.20;106705;1275;24352;-76
2024/02/03 07:57:58;;;;;;;6.40;3.30;;;;;;;4.45;79.29;95794.29;106630;1275;22632;-76
2024/02/03 08:00:26;;;;;;;8.70;4.70;;;;;;;4.59;79.11;95789.88;106713;1274;22512;-75
2024/02/03 08:02:54;;;;;;;5.60;3.30;;;;;;;4.73;78.84;95792.08;106128;1275;659544;-76
2024/02/03 08:05:23;;;;;;;6.10;3.20;;;;;;;4.76;77.89;95790.01;106614;1262;24763;-76
2024/02/03 08:07:51;;;;;;;5.60;3.60;;;;;;;4.84;78.25;95795.63;106613;1275;22531;-75
2024/02/03 08:10:19;;;;;;;4.80;2.90;;;;;;;4.87;77.65;95788.85;106601;1275;25292;-76
2024/02/03 08:12:48;;;;;;;5.10;3.00;;;;;;;4.91;77.07;95788.19;106639;1275;22771;-76
2024/02/03 08:15:18;;;;;;;4.20;3.00;;;;;;;4.96;76.96;95786.31;106672;1275;25618;-75
2024/02/03 08:17:46;;;;;;;4.10;2.90;;;;;;;4.99;76.75;95785.27;106665;1262;23927;-76
2024/02/03 08:20:14;;;;;;;8.60;5.10;;;;;;;4.98;75.99;95786.67;106642;1275;22526;-77
2024/02/03 08:22:43;;;;;;;7.60;4.90;;;;;;;4.93;75.10;95796.39;106688;1275;22654;-76
2024/02/03 08:25:11;;;;;;;6.90;4.40;;;;;;;4.93;75.39;95796.23;106620;1275;22532;-76
2024/02/03 08:27:39;;;;;;;8.00;5.30;;;;;;;4.90;75.44;95789.40;106629;1275;22539;-76
2024/02/03 08:30:08;;;;;;;6.90;4.70;;;;;;;4.83;75.53;95792.31;106643;1275;24073;-77
2024/02/03 08:32:36;;;;;;;6.50;5.30;;;;;;;4.73;75.58;95792.42;106598;1275;22781;-76
2024/02/03 08:35:05;;;;;;;8.80;5.50;;;;;;;4.63;75.88;95787.64;106700;1275;25372;-76
2024/02/03 08:37:36;;;;;;;4.50;3.40;;;;;;;4.57;76.34;95780.98;106965;1275;22645;-76
2024/02/03 08:40:06;;;;;;;9.20;4.90;;;;;;;4.52;76.38;95778.67;106907;1275;23042;-76
2024/02/03 08:42:35;;;;;;;7.50;4.90;;;;;;;4.49;76.61;95784.23;106714;1275;22780;-76
2024/02/03 08:45:03;;;;;;;10.50;6.50;;;;;;;4.49;76.57;95796.25;106612;1275;25358;-77
2024/02/03 08:47:31;;;;;;;12.30;7.00;;;;;;;4.48;76.60;95804.08;106592;1264;24231;-76
2024/02/03 08:50:00;;;;;;;8.50;5.10;;;;;;;4.47;76.83;95806.33;106668;1275;22989;-76
2024/02/03 08:52:28;;;;;;;7.60;5.60;;;;;;;4.41;76.55;95797.23;106625;1275;22573;-76
2024/02/03 08:54:58;;;;;;;6.30;4.80;;;;;;;4.44;76.72;95801.44;106862;1275;24282;-76
2024/02/03 08:57:26;;;;;;;9.90;6.00;;;;;;;4.47;77.10;95795.88;106662;1275;25249;-76
2024/02/03 08:59:55;;;;;;;9.80;7.10;;;;;;;4.56;77.27;95802.07;106600;1275;25314;-75
2024/02/03 09:02:23;;;;;;;12.50;7.30;;;;;;;4.67;76.98;95805.98;106581;1275;23208;-76
2024/02/03 09:04:52;;;;;;;10.60;6.90;;;;;;;4.72;76.60;95809.66;106701;1274;25250;-76
2024/02/03 09:07:20;;;;;;;11.10;6.60;;;;;;;4.65;76.37;95803.16;106674;1275;25484;-76
2024/02/03 09:09:48;;;;;;;10.30;7.20;;;;;;;4.61;76.22;95808.55;106672;1275;25367;-76
2024/02/03 09:12:17;;;;;;;10.80;6.70;;;;;;;4.59;76.52;95810.96;106602;1275;24053;-76
2024/02/03 09:14:45;;;;;;;14.00;8.10;;;;;;;4.49;76.65;95814.02;106619;1275;25372;-75
2024/02/03 09:17:14;;;;;;;13.40;8.50;;;;;;;4.40;76.98;95815.86;106686;1275;25403;-76
2024/02/03 09:19:42;;;;;;;13.60;8.40;;;;;;;4.37;77.61;95823.84;106630;1275;24763;-76
2024/02/03 09:22:12;;;;;;;11.90;7.50;;;;;;;4.28;77.61;95821.67;106682;1275;25435;-75
2024/02/03 09:24:41;;;;;;;15.60;9.20;;;;;;;4.26;77.81;95822.35;106758;1275;24202;-76
2024/02/03 09:27:10;;;;;;;15.90;9.90;;;;;;;4.24;77.96;95824.58;106628;1265;25605;-76
2024/02/03 09:29:41;;;;;;;14.10;8.90;;;;;;;4.21;78.01;95829.08;106632;1275;22520;-75
2024/02/03 09:32:10;;;;;;;14.10;9.40;;;;;;;4.14;78.40;95831.46;106675;1275;22524;-77
2024/02/03 09:34:38;;;;;;;14.50;8.90;;;;;;;4.11;78.16;95824.98;106625;1275;22520;-76
2024/02/03 09:37:06;;;;;;;10.90;7.40;;;;;;;4.09;78.46;95827.75;106657;1275;23661;-76
2024/02/03 09:39:42;;;;;;;13.30;7.70;;;;;;;4.08;78.51;95827.23;106750;1275;22551;-76
2024/02/03 09:42:10;;;;;;;12.60;8.00;;;;;;;4.04;78.85;95822.31;106586;1275;22518;-76
2024/02/03 09:44:39;;;;;;;11.80;7.80;;;;;;;4.06;79.08;95831.20;106772;1275;26637;-76
2024/02/03 09:47:10;;;;;;;14.60;9.40;;;;;;;4.10;78.92;95832.13;107002;1275;22539;-76
2024/02/03 09:49:38;;;;;;;12.10;7.80;;;;;;;4.13;79.05;95831.27;106966;1275;25554;-76
2024/02/03 09:52:13;;;;;;;12.40;8.20;;;;;;;4.15;78.83;95824.52;106888;1275;24043;-76
2024/02/03 09:54:45;;;;;;;14.80;7.60;;;;;;;4.21;78.88;95832.92;106632;1275;22780;-76
2024/02/03 09:57:14;;;;;;;14.00;8.30;;;;;;;4.24;78.73;95834.52;106633;1275;22524;-76
2024/02/03 09:59:49;;;;;;;13.10;8.00;;;;;;;4.27;78.64;95832.45;106684;1271;22654;-76
2024/02/03 10:02:18;;;;;;;12.70;7.50;;;;;;;4.29;78.33;95813.85;106634;1275;22523;-76
2024/02/03 10:04:48;;;;;;;8.60;5.90;;;;;;;4.34;78.34;95812.66;106601;1275;22740;-76
2024/02/03 10:07:19;;;;;;;10.70;7.60;;;;;;;4.30;77.95;95808.30;106924;1275;24354;-76
2024/02/03 10:09:48;;;;;;;11.70;7.20;;;;;;;4.28;78.24;95808.42;106648;1275;26661;-76
2024/02/03 10:12:22;;;;;;;10.40;7.10;;;;;;;4.23;78.10;95822.32;106913;1275;22679;-76
2024/02/03 10:15:07;;;;;;;12.10;7.90;;;;;;;4.21;78.35;95821.77;107021;1274;25351;-76
2024/02/03 10:17:35;;;;;;;11.80;7.40;;;;;;;4.13;78.85;95820.13;106625;1275;24219;-76
2024/02/03 10:20:05;;;;;;;12.90;7.90;;;;;;;4.10;78.76;95820.62;106711;1275;22543;-76
2024/02/03 10:22:36;;;;;;;10.60;7.10;;;;;;;4.03;79.02;95826.98;106628;1275;23022;-76
2024/02/03 10:25:09;;;;;;;11.50;8.00;;;;;;;3.98;79.01;95836.50;106668;1275;24295;-76
2024/02/03 10:27:41;;;;;;;10.30;7.10;;;;;;;3.91;78.83;95833.48;106712;1275;24314;-76
2024/02/03 10:30:11;;;;;;;15.60;8.70;;;;;;;3.87;79.06;95829.77;106984;1275;24399;-76
2024/02/03 10:32:39;;;;;;;10.80;7.30;;;;;;;3.85;79.16;95833.06;106832;1275;22577;-76
2024/02/03 10:35:08;;;;;;;10.00;7.10;;;;;;;3.83;79.38;95833.05;106782;1275;22532;-76
2024/02/03 10:37:37;;;;;;;13.20;7.40;;;;;;;3.83;79.36;95830.42;106663;1275;22542;-76
2024/02/03 10:40:07;;;;;;;10.90;6.70;;;;;;;3.79;79.77;95830.55;106689;1275;22985;-76
2024/02/03 10:42:39;;;;;;;12.40;7.60;;;;;;;3.80;79.80;95834.06;106750;1275;22607;-76
2024/02/03 10:45:10;;;;;;;15.50;8.40;;;;;;;3.85;79.79;95835.68;106638;1275;25360;-77
2024/02/03 10:47:43;;;;;;;12.70;7.40;;;;;;;3.87;79.93;95836.21;106656;1275;24231;-78
2024/02/03 10:50:14;;;;;;;11.10;7.20;;;;;;;3.84;79.77;95834.10;106677;1275;22640;-77
2024/02/03 10:52:46;;;;;;;11.30;7.00;;;;;;;3.83;80.10;95835.48;106831;1263;22523;-77
2024/02/03 10:55:17;;;;;;;18.70;10.10;;;;;;;3.86;79.71;95835.68;106824;1274;22551;-76
2024/02/03 10:57:47;;;;;;;18.70;11.30;;;;;;;3.94;79.89;95843.26;106653;1275;22532;-76
2024/02/03 11:00:18;;;;;;;16.70;10.40;;;;;;;4.02;79.88;95841.09;106737;1275;22519;-76
2024/02/03 11:02:57;;;;;;;16.20;10.10;;;;;;;4.08;79.80;95844.45;106727;1275;22537;-76
2024/02/03 11:05:27;;;;;;;14.30;8.60;;;;;;;4.10;79.92;95841.51;106635;1275;22524;-76
2024/02/03 11:08:05;;;;;;;14.70;8.30;;;;;;;4.12;79.90;95842.58;106594;1274;23887;-76
2024/02/03 11:10:38;;;;;;;14.50;8.20;;;;;;;4.18;79.61;95841.94;106685;1275;22522;-76
2024/02/03 11:13:40;;;;;;;12.10;7.00;;;;;;;4.23;79.66;95842.17;106789;1275;22560;-76
2024/02/03 11:16:09;;;;;;;10.10;6.50;;;;;;;4.25;79.33;95843.23;106612;1275;24265;-76
2024/02/03 11:18:40;;;;;;;11.80;7.60;;;;;;;4.28;79.40;95838.74;106638;1275;22937;-76
2024/02/03 11:21:09;;;;;;;13.10;7.00;;;;;;;4.29;79.11;95836.30;106588;1275;22521;-76
2024/02/03 11:23:37;;;;;;;12.10;7.70;;;;;;;4.29;79.10;95828.29;106681;1275;25427;-76
2024/02/03 11:26:05;;;;;;;10.80;7.20;;;;;;;4.32;79.23;95822.41;106637;1272;22628;-76
2024/02/03 11:28:34;;;;;;;10.90;7.80;;;;;;;4.38;79.20;95818.10;106619;1275;22538;-76
2024/02/03 11:31:06;;;;;;;12.60;7.80;;;;;;;4.41;78.89;95815.67;107006;1275;25556;-76
2024/02/03 11:33:45;;;;;;;11.40;8.20;;;;;;;4.46;78.70;95811.55;106690;1275;23312;-76
2024/02/03 11:36:15;;;;;;;14.90;8.30;;;;;;;4.52;78.98;95806.20;106610;1275;25351;-77
2024/02/03 11:38:44;;;;;;;12.80;8.00;;;;;;;4.61;78.81;95795.48;106690;1275;22620;-76